^^
Grace C. Lehan Memorial Weather Station Historical Data
Daily Summary for May 21, 2022 Units:  Both    English   Metric
Daily Weekly Monthly Yearly
  High: Low: Average:
Temperature: 76.4 °F /  24.7 °C 58.4 °F /  14.7 °C 64.6 °F /  18.1 °C
Dew Point: 64 °F /  17.8 °C 55.6 °F /  13.1 °C 58.7 °F /  14.8 °C
Humidity: 92% 62.8% 82%
Wind Speed: 1.8mph /  2.9km/h - 0.2mph /  0.3km/h
Wind Gust: 9mph /  14.5km/h - -
Wind- - WNW
Pressure: 29.94 in /  1013.8 hPa 29.79 in /  1008.7 hPa -
Precipitation: 0.00 in /  0 mm    
 
 
Tabular Data for May 21, 2022
Time Temperature Dew Point Pressure Wind Wind Speed Wind Gust Humidity Rainfall Rate (Hourly) solar
00:00 63.4 °F /  17.4 °C 60.4 °F /  15.8 °C 29.88in /  1011.7hPa Calm   4mph /  6.4km/h 90% 0.00in /  0mm 0 W/m2
00:09 63.2 °F /  17.3 °C 60.2 °F /  15.7 °C 29.88in /  1011.7hPa Calm   1mph /  1.6km/h 90% 0.00in /  0mm 0 W/m2
00:14 63.1 °F /  17.3 °C 60.1 °F /  15.6 °C 29.88in /  1011.7hPa WNW 0.3mph /  0.5km/h 3mph /  4.8km/h 90% 0.00in /  0mm 0 W/m2
00:19 63 °F /  17.2 °C 60 °F /  15.6 °C 29.88in /  1011.7hPa WNW 1mph /  1.6km/h 6mph /  9.7km/h 90% 0.00in /  0mm 0 W/m2
00:24 62.9 °F /  17.2 °C 59.9 °F /  15.5 °C 29.88in /  1011.7hPa WNW 0.2mph /  0.3km/h 6mph /  9.7km/h 90% 0.00in /  0mm 0 W/m2
00:29 62.7 °F /  17.1 °C 59.7 °F /  15.4 °C 29.88in /  1011.7hPa WNW 0.3mph /  0.5km/h 6mph /  9.7km/h 90% 0.00in /  0mm 0 W/m2
00:34 62.6 °F /  17 °C 59.8 °F /  15.4 °C 29.88in /  1011.7hPa WNW 0.3mph /  0.5km/h 6mph /  9.7km/h 90.7% 0.00in /  0mm 0 W/m2
00:39 62.5 °F /  16.9 °C 59.6 °F /  15.3 °C 29.88in /  1011.7hPa NW 0.3mph /  0.5km/h 5mph /  8km/h 90.1% 0.00in /  0mm 0 W/m2
00:44 62.5 °F /  16.9 °C 59.5 °F /  15.3 °C 29.88in /  1011.7hPa NW 0.5mph /  0.8km/h 5mph /  8km/h 90% 0.00in /  0mm 0 W/m2
00:49 62.4 °F /  16.9 °C 59.4 °F /  15.2 °C 29.88in /  1011.7hPa NW 0.2mph /  0.3km/h 5mph /  8km/h 90% 0.00in /  0mm 0 W/m2
00:54 62.3 °F /  16.8 °C 59.5 °F /  15.3 °C 29.88in /  1011.7hPa WNW 0.3mph /  0.5km/h 5mph /  8km/h 90.7% 0.00in /  0mm 0 W/m2
00:59 62.2 °F /  16.8 °C 59.5 °F /  15.3 °C 29.88in /  1011.7hPa Calm   5mph /  8km/h 91% 0.00in /  0mm 0 W/m2
01:04 62.2 °F /  16.8 °C 59.5 °F /  15.3 °C 29.88in /  1011.7hPa NW 0.5mph /  0.8km/h 5mph /  8km/h 91% 0.00in /  0mm 0 W/m2
01:09 62.2 °F /  16.8 °C 59.5 °F /  15.3 °C 29.88in /  1011.7hPa WNW 0.1mph /  0.2km/h 5mph /  8km/h 91% 0.00in /  0mm 0 W/m2
01:14 62.1 °F /  16.7 °C 59.5 °F /  15.3 °C 29.88in /  1011.7hPa WNW 0.3mph /  0.5km/h 5mph /  8km/h 91% 0.00in /  0mm 0 W/m2
01:19 62.1 °F /  16.7 °C 59.5 °F /  15.3 °C 29.88in /  1011.7hPa Calm   5mph /  8km/h 91% 0.00in /  0mm 0 W/m2
01:24 62.1 °F /  16.7 °C 59.5 °F /  15.3 °C 29.88in /  1011.7hPa NW 0.7mph /  1.1km/h 6mph /  9.7km/h 91% 0.00in /  0mm 0 W/m2
01:25 62.1 °F /  16.7 °C 59.5 °F /  15.3 °C 29.88in /  1011.7hPa Calm   6mph /  9.7km/h 91% 0.00in /  0mm 0 W/m2
01:30 62 °F /  16.7 °C 59.4 °F /  15.2 °C 29.88in /  1011.7hPa Calm   6mph /  9.7km/h 91% 0.00in /  0mm 0 W/m2
02:30 61.2 °F /  16.2 °C 58.6 °F /  14.8 °C 29.89in /  1012.1hPa Calm   3mph /  4.8km/h 91% 0.00in /  0mm 0 W/m2
03:00 60.9 °F /  16.1 °C 58.3 °F /  14.6 °C 29.89in /  1012.1hPa Calm     91% 0.00in /  0mm 0 W/m2
03:30 61.3 °F /  16.3 °C 59 °F /  15 °C 29.89in /  1012.1hPa Calm   2mph /  3.2km/h 92% 0.00in /  0mm 0 W/m2
04:04 60.9 °F /  16.1 °C 58.3 °F /  14.6 °C 29.89in /  1012.1hPa NW 0.9mph /  1.4km/h 4mph /  6.4km/h 91% 0.00in /  0mm 0 W/m2
04:09 60.9 °F /  16.1 °C 58.3 °F /  14.6 °C 29.89in /  1012.1hPa Calm   4mph /  6.4km/h 91% 0.00in /  0mm 0 W/m2
04:14 60.8 °F /  16 °C 58.2 °F /  14.6 °C 29.89in /  1012.1hPa Calm   4mph /  6.4km/h 91% 0.00in /  0mm 0 W/m2
04:19 60.7 °F /  15.9 °C 58.1 °F /  14.5 °C 29.89in /  1012.1hPa Calm   4mph /  6.4km/h 91% 0.00in /  0mm 0 W/m2
04:24 60.6 °F /  15.9 °C 58 °F /  14.4 °C 29.89in /  1012.1hPa Calm   4mph /  6.4km/h 91% 0.00in /  0mm 0 W/m2
04:29 60.5 °F /  15.8 °C 57.9 °F /  14.4 °C 29.89in /  1012.1hPa Calm   4mph /  6.4km/h 91% 0.00in /  0mm 0 W/m2
04:34 60.4 °F /  15.8 °C 57.8 °F /  14.3 °C 29.89in /  1012.1hPa Calm   4mph /  6.4km/h 91% 0.00in /  0mm 0 W/m2
04:39 60.4 °F /  15.8 °C 57.8 °F /  14.3 °C 29.89in /  1012.1hPa NW 0.1mph /  0.2km/h 3mph /  4.8km/h 91% 0.00in /  0mm 0 W/m2
04:44 60.3 °F /  15.7 °C 57.4 °F /  14.1 °C 29.89in /  1012.1hPa Calm   3mph /  4.8km/h 90.1% 0.00in /  0mm 0 W/m2
04:49 60.2 °F /  15.7 °C 57.3 °F /  14.1 °C 29.89in /  1012.1hPa NW 0.2mph /  0.3km/h 4mph /  6.4km/h 90% 0.00in /  0mm 0 W/m2
04:54 60.2 °F /  15.7 °C 57.3 °F /  14.1 °C 29.89in /  1012.1hPa Calm   4mph /  6.4km/h 90% 0.00in /  0mm 0 W/m2
04:59 60.2 °F /  15.7 °C 57.3 °F /  14.1 °C 29.89in /  1012.1hPa Calm   4mph /  6.4km/h 90% 0.00in /  0mm 0 W/m2
05:04 60.1 °F /  15.6 °C 57.2 °F /  14 °C 29.89in /  1012.1hPa Calm   4mph /  6.4km/h 90% 0.00in /  0mm 0 W/m2
05:09 60.1 °F /  15.6 °C 56.9 °F /  13.8 °C 29.89in /  1012.1hPa Calm   1mph /  1.6km/h 89.1% 0.00in /  0mm 0 W/m2
05:14 60.1 °F /  15.6 °C 56.9 °F /  13.8 °C 29.90in /  1012.4hPa NW 0.1mph /  0.2km/h 3mph /  4.8km/h 89% 0.00in /  0mm 0 W/m2
05:19 60.2 °F /  15.7 °C 57 °F /  13.9 °C 29.90in /  1012.4hPa Calm   3mph /  4.8km/h 89% 0.00in /  0mm 0 W/m2
05:24 60.2 °F /  15.7 °C 57 °F /  13.9 °C 29.90in /  1012.4hPa Calm   3mph /  4.8km/h 89% 0.00in /  0mm 0 W/m2
05:29 60.2 °F /  15.7 °C 57 °F /  13.9 °C 29.90in /  1012.4hPa Calm   3mph /  4.8km/h 89% 0.00in /  0mm 0 W/m2
05:34 60.2 °F /  15.7 °C 56.8 °F /  13.8 °C 29.90in /  1012.4hPa NW 0.1mph /  0.2km/h 3mph /  4.8km/h 88.3% 0.00in /  0mm 0 W/m2
05:39 60.3 °F /  15.7 °C 56.7 °F /  13.7 °C 29.90in /  1012.4hPa Calm   2mph /  3.2km/h 88% 0.00in /  0mm 0 W/m2
05:44 60.4 °F /  15.8 °C 56.8 °F /  13.8 °C 29.90in /  1012.4hPa Calm   2mph /  3.2km/h 88% 0.00in /  0mm 0 W/m2
05:49 60.4 °F /  15.8 °C 56.8 °F /  13.8 °C 29.90in /  1012.4hPa Calm   2mph /  3.2km/h 88% 0.00in /  0mm 0 W/m2
05:54 60.3 °F /  15.7 °C 56.7 °F /  13.7 °C 29.90in /  1012.4hPa Calm   2mph /  3.2km/h 88% 0.00in /  0mm 0 W/m2
05:59 60.2 °F /  15.7 °C 56.6 °F /  13.7 °C 29.90in /  1012.4hPa Calm   2mph /  3.2km/h 88% 0.00in /  0mm 0 W/m2
06:04 60.2 °F /  15.7 °C 56.6 °F /  13.7 °C 29.91in /  1012.8hPa Calm   2mph /  3.2km/h 88% 0.00in /  0mm 0 W/m2
06:09 60.1 °F /  15.6 °C 56.5 °F /  13.6 °C 29.91in /  1012.8hPa Calm     88% 0.00in /  0mm 0 W/m2
06:14 59.9 °F /  15.5 °C 56.3 °F /  13.5 °C 29.90in /  1012.4hPa Calm     88% 0.00in /  0mm 0 W/m2
06:19 59.8 °F /  15.4 °C 56.2 °F /  13.4 °C 29.91in /  1012.8hPa Calm     88% 0.00in /  0mm 0 W/m2
06:24 59.6 °F /  15.3 °C 56 °F /  13.3 °C 29.91in /  1012.8hPa Calm     88% 0.00in /  0mm 0 W/m2
06:29 59.5 °F /  15.3 °C 56.1 °F /  13.4 °C 29.91in /  1012.8hPa Calm     88.4% 0.00in /  0mm 0 W/m2
06:34 59.3 °F /  15.2 °C 55.9 °F /  13.3 °C 29.91in /  1012.8hPa Calm     88.3% 0.00in /  0mm 0 W/m2
06:39 59.1 °F /  15.1 °C 55.7 °F /  13.2 °C 29.91in /  1012.8hPa Calm     88.5% 0.00in /  0mm 0 W/m2
06:44 59 °F /  15 °C 55.8 °F /  13.2 °C 29.91in /  1012.8hPa Calm     89% 0.00in /  0mm 5 W/m2
06:49 58.9 °F /  14.9 °C 55.7 °F /  13.2 °C 29.91in /  1012.8hPa Calm     89% 0.00in /  0mm 7 W/m2
06:54 58.7 °F /  14.8 °C 55.7 °F /  13.2 °C 29.92in /  1013.1hPa Calm     89.6% 0.00in /  0mm 9 W/m2
06:59 58.6 °F /  14.8 °C 55.7 °F /  13.2 °C 29.92in /  1013.1hPa Calm     90% 0.00in /  0mm 9 W/m2
07:04 58.5 °F /  14.7 °C 55.6 °F /  13.1 °C 29.92in /  1013.1hPa Calm     90% 0.00in /  0mm 11 W/m2
07:09 58.4 °F /  14.7 °C 55.6 °F /  13.1 °C 29.92in /  1013.1hPa Calm     90.2% 0.00in /  0mm 12 W/m2
07:14 58.4 °F /  14.7 °C 55.8 °F /  13.2 °C 29.92in /  1013.1hPa Calm     91% 0.00in /  0mm 12 W/m2
07:19 58.4 °F /  14.7 °C 55.8 °F /  13.2 °C 29.92in /  1013.1hPa Calm     91% 0.00in /  0mm 14 W/m2
07:24 58.4 °F /  14.7 °C 55.8 °F /  13.2 °C 29.92in /  1013.1hPa Calm     91% 0.00in /  0mm 16 W/m2
07:29 58.4 °F /  14.7 °C 56 °F /  13.3 °C 29.93in /  1013.4hPa Calm     91.7% 0.00in /  0mm 16 W/m2
07:34 58.5 °F /  14.7 °C 56.2 °F /  13.4 °C 29.93in /  1013.4hPa Calm     92% 0.00in /  0mm 18 W/m2
07:39 58.6 °F /  14.8 °C 56.3 °F /  13.5 °C 29.93in /  1013.4hPa Calm     92% 0.00in /  0mm 18 W/m2
07:44 58.6 °F /  14.8 °C 56.3 °F /  13.5 °C 29.93in /  1013.4hPa Calm   1mph /  1.6km/h 92% 0.00in /  0mm 18 W/m2
07:49 58.7 °F /  14.8 °C 56.4 °F /  13.6 °C 29.93in /  1013.4hPa Calm   1mph /  1.6km/h 92% 0.00in /  0mm 19 W/m2
07:54 58.8 °F /  14.9 °C 56.5 °F /  13.6 °C 29.93in /  1013.4hPa Calm   1mph /  1.6km/h 92% 0.00in /  0mm 21 W/m2
07:59 58.9 °F /  14.9 °C 56.6 °F /  13.7 °C 29.92in /  1013.1hPa Calm   1mph /  1.6km/h 92% 0.00in /  0mm 21 W/m2
08:04 59.1 °F /  15.1 °C 56.5 °F /  13.6 °C 29.92in /  1013.1hPa Calm     91% 0.00in /  0mm 23 W/m2
08:09 59.2 °F /  15.1 °C 56.6 °F /  13.7 °C 29.93in /  1013.4hPa Calm     91% 0.00in /  0mm 25 W/m2
08:14 59.4 °F /  15.2 °C 56.8 °F /  13.8 °C 29.93in /  1013.4hPa Calm     91% 0.00in /  0mm 26 W/m2
08:19 59.6 °F /  15.3 °C 56.9 °F /  13.8 °C 29.93in /  1013.4hPa Calm     90.9% 0.00in /  0mm 30 W/m2
08:24 59.7 °F /  15.4 °C 56.8 °F /  13.8 °C 29.93in /  1013.4hPa Calm     90% 0.00in /  0mm 33 W/m2
08:29 60 °F /  15.6 °C 57.1 °F /  13.9 °C 29.93in /  1013.4hPa Calm     89.9% 0.00in /  0mm 40 W/m2
08:34 60.2 °F /  15.7 °C 57 °F /  13.9 °C 29.93in /  1013.4hPa Calm     89% 0.00in /  0mm 46 W/m2
08:39 60.5 °F /  15.8 °C 57 °F /  13.9 °C 29.93in /  1013.4hPa Calm     88.4% 0.00in /  0mm 51 W/m2
08:44 60.8 °F /  16 °C 57 °F /  13.9 °C 29.93in /  1013.4hPa Calm     87.6% 0.00in /  0mm 60 W/m2
08:49 61.1 °F /  16.2 °C 57.2 °F /  14 °C 29.93in /  1013.4hPa Calm     87% 0.00in /  0mm 63 W/m2
08:54 61.4 °F /  16.3 °C 57.2 °F /  14 °C 29.93in /  1013.4hPa NW 0.1mph /  0.2km/h 2mph /  3.2km/h 86% 0.00in /  0mm 158 W/m2
08:59 62 °F /  16.7 °C 57.5 °F /  14.2 °C 29.93in /  1013.4hPa NW 0.8mph /  1.3km/h 6mph /  9.7km/h 85.4% 0.00in /  0mm 411 W/m2
09:04 62.7 °F /  17.1 °C 57.7 °F /  14.3 °C 29.93in /  1013.4hPa Calm   6mph /  9.7km/h 83.4% 0.00in /  0mm 439 W/m2
09:09 63.7 °F /  17.6 °C 58.3 °F /  14.6 °C 29.93in /  1013.4hPa NW 0.7mph /  1.1km/h 4mph /  6.4km/h 82.6% 0.00in /  0mm 480 W/m2
09:14 64.8 °F /  18.2 °C 58.6 °F /  14.8 °C 29.94in /  1013.8hPa North 1.2mph /  1.9km/h 6mph /  9.7km/h 80.4% 0.00in /  0mm 524 W/m2
09:19 66 °F /  18.9 °C 58.8 °F /  14.9 °C 29.94in /  1013.8hPa NW 1.8mph /  2.9km/h 9mph /  14.5km/h 77.4% 0.00in /  0mm 594 W/m2
09:24 67.2 °F /  19.6 °C 59 °F /  15 °C 29.93in /  1013.4hPa NW 0.5mph /  0.8km/h 9mph /  14.5km/h 75% 0.00in /  0mm 633 W/m2
09:29 68.3 °F /  20.2 °C 59.8 °F /  15.4 °C 29.93in /  1013.4hPa WNW 1.3mph /  2.1km/h 9mph /  14.5km/h 74.2% 0.00in /  0mm 679 W/m2
09:34 69.2 °F /  20.7 °C 60.1 °F /  15.6 °C 29.93in /  1013.4hPa WNW 0.3mph /  0.5km/h 9mph /  14.5km/h 72.7% 0.00in /  0mm 694 W/m2
09:39 70.1 °F /  21.2 °C 60.4 °F /  15.8 °C 29.94in /  1013.8hPa WNW 0.8mph /  1.3km/h 5mph /  8km/h 71.2% 0.00in /  0mm 401 W/m2
09:44 70.4 °F /  21.3 °C 59.6 °F /  15.3 °C 29.94in /  1013.8hPa WNW 0.4mph /  0.6km/h 5mph /  8km/h 68.6% 0.00in /  0mm 139 W/m2
09:49 69.9 °F /  21.1 °C 58.9 °F /  14.9 °C 29.94in /  1013.8hPa Calm   5mph /  8km/h 68% 0.00in /  0mm 211 W/m2
09:54 69.4 °F /  20.8 °C 59.3 °F /  15.2 °C 29.94in /  1013.8hPa Calm   5mph /  8km/h 70.2% 0.00in /  0mm 223 W/m2
09:59 68.9 °F /  20.5 °C 58.7 °F /  14.8 °C 29.93in /  1013.4hPa Calm   5mph /  8km/h 70% 0.00in /  0mm 297 W/m2
10:04 68.6 °F /  20.3 °C 58.5 °F /  14.7 °C 29.93in /  1013.4hPa Calm   5mph /  8km/h 70.4% 0.00in /  0mm 545 W/m2
10:09 68.5 °F /  20.3 °C 58.2 °F /  14.6 °C 29.93in /  1013.4hPa Calm   3mph /  4.8km/h 69.8% 0.00in /  0mm 338 W/m2
10:14 68.4 °F /  20.2 °C 58.1 °F /  14.5 °C 29.93in /  1013.4hPa North 0.6mph /  1km/h 4mph /  6.4km/h 69.7% 0.00in /  0mm 220 W/m2
10:19 68.3 °F /  20.2 °C 58.3 °F /  14.6 °C 29.93in /  1013.4hPa NW 0.5mph /  0.8km/h 4mph /  6.4km/h 70.4% 0.00in /  0mm 213 W/m2
10:24 68.2 °F /  20.1 °C 58.6 °F /  14.8 °C 29.93in /  1013.4hPa WNW 0.9mph /  1.4km/h 6mph /  9.7km/h 71.4% 0.00in /  0mm 225 W/m2
10:29 67.9 °F /  19.9 °C 58.6 °F /  14.8 °C 29.93in /  1013.4hPa WNW 1.2mph /  1.9km/h 6mph /  9.7km/h 72.1% 0.00in /  0mm 272 W/m2
10:34 67.7 °F /  19.8 °C 58.5 °F /  14.7 °C 29.93in /  1013.4hPa WNW 0.1mph /  0.2km/h 6mph /  9.7km/h 72.3% 0.00in /  0mm 294 W/m2
10:39 67.6 °F /  19.8 °C 58.6 °F /  14.8 °C 29.93in /  1013.4hPa WNW 0.4mph /  0.6km/h 4mph /  6.4km/h 73.1% 0.00in /  0mm 287 W/m2
10:44 67.6 °F /  19.8 °C 58.6 °F /  14.8 °C 29.93in /  1013.4hPa WNW 0.1mph /  0.2km/h 4mph /  6.4km/h 73.1% 0.00in /  0mm 248 W/m2
10:49 67.7 °F /  19.8 °C 59.1 °F /  15.1 °C 29.93in /  1013.4hPa WNW 0.8mph /  1.3km/h 7mph /  11.3km/h 74% 0.00in /  0mm 246 W/m2
10:54 67.7 °F /  19.8 °C 58.8 °F /  14.9 °C 29.93in /  1013.4hPa West 1.1mph /  1.8km/h 9mph /  14.5km/h 73.3% 0.00in /  0mm 229 W/m2
13:19 71.9 °F /  22.2 °C 60.8 °F /  16 °C 29.86in /  1011.1hPa Calm   2mph /  3.2km/h 67.9% 0.00in /  0mm 84 W/m2
13:24 72 °F /  22.2 °C 60.5 °F /  15.8 °C 29.86in /  1011.1hPa North 0.1mph /  0.2km/h 2mph /  3.2km/h 67.2% 0.00in /  0mm 91 W/m2
13:29 72.2 °F /  22.3 °C 61 °F /  16.1 °C 29.86in /  1011.1hPa Calm   2mph /  3.2km/h 68% 0.00in /  0mm 81 W/m2
13:34 72.3 °F /  22.4 °C 60.9 °F /  16.1 °C 29.86in /  1011.1hPa NNW 0.2mph /  0.3km/h 2mph /  3.2km/h 67.4% 0.00in /  0mm 98 W/m2
13:39 72.5 °F /  22.5 °C 61.2 °F /  16.2 °C 29.85in /  1010.7hPa Calm   2mph /  3.2km/h 67.7% 0.00in /  0mm 49 W/m2
13:44 72.6 °F /  22.6 °C 60.7 °F /  15.9 °C 29.85in /  1010.7hPa NNW 0.1mph /  0.2km/h 2mph /  3.2km/h 66.3% 0.00in /  0mm 60 W/m2
13:49 72.5 °F /  22.5 °C 60.5 °F /  15.8 °C 29.85in /  1010.7hPa Calm   2mph /  3.2km/h 65.8% 0.00in /  0mm 72 W/m2
13:54 72.6 °F /  22.6 °C 61.3 °F /  16.3 °C 29.85in /  1010.7hPa Calm   2mph /  3.2km/h 67.7% 0.00in /  0mm 113 W/m2
13:59 72.8 °F /  22.7 °C 61.2 °F /  16.2 °C 29.85in /  1010.7hPa Calm   2mph /  3.2km/h 67% 0.00in /  0mm 114 W/m2
14:04 73 °F /  22.8 °C 61.9 °F /  16.6 °C 29.85in /  1010.7hPa NW 0.2mph /  0.3km/h 4mph /  6.4km/h 68.2% 0.00in /  0mm 125 W/m2
14:09 73.2 °F /  22.9 °C 61.5 °F /  16.4 °C 29.85in /  1010.7hPa WNW 0.2mph /  0.3km/h 4mph /  6.4km/h 66.7% 0.00in /  0mm 67 W/m2
14:14 73.4 °F /  23 °C 61.6 °F /  16.4 °C 29.84in /  1010.4hPa WNW 0.5mph /  0.8km/h 4mph /  6.4km/h 66.6% 0.00in /  0mm 62 W/m2
14:19 73.5 °F /  23.1 °C 61.6 °F /  16.4 °C 29.84in /  1010.4hPa WNW 0.2mph /  0.3km/h 4mph /  6.4km/h 66.2% 0.00in /  0mm 60 W/m2
14:24 73.7 °F /  23.2 °C 62.1 °F /  16.7 °C 29.84in /  1010.4hPa Calm   4mph /  6.4km/h 66.9% 0.00in /  0mm 56 W/m2
14:29 74 °F /  23.3 °C 61.8 °F /  16.6 °C 29.84in /  1010.4hPa Calm   4mph /  6.4km/h 65.7% 0.00in /  0mm 53 W/m2
14:34 74.2 °F /  23.4 °C 62.1 °F /  16.7 °C 29.84in /  1010.4hPa WNW 0.1mph /  0.2km/h 4mph /  6.4km/h 66.1% 0.00in /  0mm 54 W/m2
14:39 74.3 °F /  23.5 °C 61.8 °F /  16.6 °C 29.84in /  1010.4hPa West 0.2mph /  0.3km/h 3mph /  4.8km/h 65% 0.00in /  0mm 149 W/m2
14:44 74.5 °F /  23.6 °C 61.9 °F /  16.6 °C 29.84in /  1010.4hPa West 0.3mph /  0.5km/h 3mph /  4.8km/h 64.8% 0.00in /  0mm 199 W/m2
14:45 74.7 °F /  23.7 °C 61.7 °F /  16.5 °C 29.84in /  1010.4hPa Calm   3mph /  4.8km/h 64% 0.00in /  0mm 163 W/m2
15:34 75.8 °F /  24.3 °C 63.1 °F /  17.3 °C 29.81in /  1009.4hPa SSW 0.1mph /  0.2km/h 2mph /  3.2km/h 64.6% 0.00in /  0mm 461 W/m2
15:39 76.1 °F /  24.5 °C 63.2 °F /  17.3 °C 29.82in /  1009.7hPa SSW 0.1mph /  0.2km/h 3mph /  4.8km/h 64.4% 0.00in /  0mm 425 W/m2
15:44 76 °F /  24.4 °C 62.5 °F /  16.9 °C 29.81in /  1009.4hPa Calm   3mph /  4.8km/h 62.8% 0.00in /  0mm 155 W/m2
15:49 75.9 °F /  24.4 °C 62.9 °F /  17.2 °C 29.81in /  1009.4hPa SSW 0.1mph /  0.2km/h 3mph /  4.8km/h 64.1% 0.00in /  0mm 606 W/m2
15:54 76 °F /  24.4 °C 63.6 °F /  17.6 °C 29.81in /  1009.4hPa SW 0.2mph /  0.3km/h 6mph /  9.7km/h 65.4% 0.00in /  0mm 589 W/m2
15:59 76.3 °F /  24.6 °C 63.6 °F /  17.6 °C 29.81in /  1009.4hPa WSW 0.4mph /  0.6km/h 6mph /  9.7km/h 64.8% 0.00in /  0mm 54 W/m2
16:00 76.4 °F /  24.7 °C 63.3 °F /  17.4 °C 29.81in /  1009.4hPa Calm   6mph /  9.7km/h 64% 0.00in /  0mm 53 W/m2
17:30 74 °F /  23.3 °C 64 °F /  17.8 °C 29.81in /  1009.4hPa Calm   2mph /  3.2km/h 71% 0.00in /  0mm 35 W/m2
18:00 72.5 °F /  22.5 °C 63.4 °F /  17.4 °C 29.80in /  1009hPa Calm   2mph /  3.2km/h 73% 0.00in /  0mm 33 W/m2
19:30 69.5 °F /  20.8 °C 62.3 °F /  16.8 °C 29.79in /  1008.7hPa Calm     78% 0.00in /  0mm 0 W/m2
Hartford County Weather
Compliments of Weather Underground - 4 mb